sensor_id;sensor_type;location;lat;lon;timestamp;pressure;altitude;pressure_sealevel;temperature;humidity
66627;BME280;53498;50.422;14.912;2022-10-17T00:02:00;99927.22;;;13.95;100.00
66627;BME280;53498;50.422;14.912;2022-10-17T00:04:26;99928.97;;;13.92;100.00
66627;BME280;53498;50.422;14.912;2022-10-17T00:06:51;99936.81;;;13.90;100.00
66627;BME280;53498;50.422;14.912;2022-10-17T00:09:17;99930.69;;;13.85;100.00
66627;BME280;53498;50.422;14.912;2022-10-17T00:11:42;99929.84;;;13.83;100.00
66627;BME280;53498;50.422;14.912;2022-10-17T00:14:08;99930.69;;;13.91;100.00
66627;BME280;53498;50.422;14.912;2022-10-17T00:16:34;99929.84;;;14.01;100.00
66627;BME280;53498;50.422;14.912;2022-10-17T00:19:04;99939.41;;;14.07;100.00
66627;BME280;53498;50.422;14.912;2022-10-17T00:21:39;99935.94;;;14.05;100.00
66627;BME280;53498;50.422;14.912;2022-10-17T00:24:05;99939.44;;;14.05;100.00
66627;BME280;53498;50.422;14.912;2022-10-17T00:26:30;99940.31;;;14.04;100.00
66627;BME280;53498;50.422;14.912;2022-10-17T00:28:56;99933.31;;;14.06;100.00
66627;BME280;53498;50.422;14.912;2022-10-17T00:31:22;99935.06;;;14.10;100.00
66627;BME280;53498;50.422;14.912;2022-10-17T00:33:49;99939.41;;;14.10;100.00
66627;BME280;53498;50.422;14.912;2022-10-17T00:36:23;99940.31;;;14.10;100.00
66627;BME280;53498;50.422;14.912;2022-10-17T00:38:52;99935.06;;;14.06;100.00
66627;BME280;53498;50.422;14.912;2022-10-17T00:41:20;99941.16;;;13.97;100.00
66627;BME280;53498;50.422;14.912;2022-10-17T00:44:02;99936.81;;;13.95;100.00
66627;BME280;53498;50.422;14.912;2022-10-17T00:46:36;99938.53;;;13.97;100.00
66627;BME280;53498;50.422;14.912;2022-10-17T00:49:08;99935.06;;;13.94;100.00
66627;BME280;53498;50.422;14.912;2022-10-17T00:51:44;99938.53;;;13.88;100.00
66627;BME280;53498;50.422;14.912;2022-10-17T00:54:13;99943.75;;;13.82;100.00
66627;BME280;53498;50.422;14.912;2022-10-17T00:56:39;99939.44;;;13.76;100.00
66627;BME280;53498;50.422;14.912;2022-10-17T00:59:06;99942.88;;;13.75;100.00
66627;BME280;53498;50.422;14.912;2022-10-17T01:01:33;99941.16;;;13.67;100.00
66627;BME280;53498;50.422;14.912;2022-10-17T01:04:00;99939.41;;;13.61;100.00
66627;BME280;53498;50.422;14.912;2022-10-17T01:06:25;99936.75;;;13.56;100.00
66627;BME280;53498;50.422;14.912;2022-10-17T01:08:51;99941.97;;;13.53;100.00
66627;BME280;53498;50.422;14.912;2022-10-17T01:11:21;99941.13;;;13.51;100.00
66627;BME280;53498;50.422;14.912;2022-10-17T01:13:57;99942.88;;;13.45;100.00
66627;BME280;53498;50.422;14.912;2022-10-17T01:16:45;99941.09;;;13.42;100.00
66627;BME280;53498;50.422;14.912;2022-10-17T01:36:08;99928.00;;;13.31;100.00
66627;BME280;53498;50.422;14.912;2022-10-17T01:38:59;99913.22;;;13.32;100.00
66627;BME280;53498;50.422;14.912;2022-10-17T01:41:38;99927.13;;;13.28;100.00
66627;BME280;53498;50.422;14.912;2022-10-17T01:44:21;99932.34;;;13.25;100.00
66627;BME280;53498;50.422;14.912;2022-10-17T01:46:49;99930.63;;;13.27;100.00
66627;BME280;53498;50.422;14.912;2022-10-17T01:49:18;99928.88;;;13.27;100.00
66627;BME280;53498;50.422;14.912;2022-10-17T01:52:13;99932.34;;;13.31;100.00
66627;BME280;53498;50.422;14.912;2022-10-17T01:54:57;99927.13;;;13.29;100.00
66627;BME280;53498;50.422;14.912;2022-10-17T01:57:35;99928.88;;;13.27;100.00
66627;BME280;53498;50.422;14.912;2022-10-17T02:00:05;99927.94;;;13.20;100.00
66627;BME280;53498;50.422;14.912;2022-10-17T02:02:33;99933.16;;;13.14;100.00
66627;BME280;53498;50.422;14.912;2022-10-17T02:05:02;99937.47;;;13.12;100.00
66627;BME280;53498;50.422;14.912;2022-10-17T02:07:28;99933.13;;;13.11;100.00
66627;BME280;53498;50.422;14.912;2022-10-17T02:09:54;99934.88;;;13.09;100.00
66627;BME280;53498;50.422;14.912;2022-10-17T02:12:42;99939.25;;;13.16;100.00
66627;BME280;53498;50.422;14.912;2022-10-17T02:15:32;99930.53;;;13.14;100.00
66627;BME280;53498;50.422;14.912;2022-10-17T02:18:18;99944.47;;;13.13;100.00
66627;BME280;53498;50.422;14.912;2022-10-17T02:21:07;99943.56;;;13.10;100.00
66627;BME280;53498;50.422;14.912;2022-10-17T02:24:15;99947.94;;;13.08;100.00
66627;BME280;53498;50.422;14.912;2022-10-17T02:26:34;99935.75;;;13.07;100.00
66627;BME280;53498;50.422;14.912;2022-10-17T02:29:14;99933.97;;;13.00;100.00
66627;BME280;53498;50.422;14.912;2022-10-17T02:31:56;99943.50;;;12.93;100.00
66627;BME280;53498;50.422;14.912;2022-10-17T02:34:29;99945.25;;;12.94;100.00
66627;BME280;53498;50.422;14.912;2022-10-17T02:36:59;99938.28;;;12.88;100.00
66627;BME280;53498;50.422;14.912;2022-10-17T02:39:27;99940.91;;;12.94;100.00
66627;BME280;53498;50.422;14.912;2022-10-17T02:41:55;99949.63;;;13.00;100.00
66627;BME280;53498;50.422;14.912;2022-10-17T02:44:24;99947.88;;;12.95;100.00
66627;BME280;53498;50.422;14.912;2022-10-17T02:46:54;99953.97;;;12.96;100.00
66627;BME280;53498;50.422;14.912;2022-10-17T02:49:30;99948.75;;;12.99;100.00
66627;BME280;53498;50.422;14.912;2022-10-17T02:52:34;99952.25;;;13.03;100.00
66627;BME280;53498;50.422;14.912;2022-10-17T02:55:17;99954.00;;;13.01;100.00
66627;BME280;53498;50.422;14.912;2022-10-17T02:57:47;99947.00;;;13.00;100.00
66627;BME280;53498;50.422;14.912;2022-10-17T03:00:16;99956.59;;;12.99;100.00
66627;BME280;53498;50.422;14.912;2022-10-17T03:02:44;99957.47;;;13.03;100.00
66627;BME280;53498;50.422;14.912;2022-10-17T03:05:12;99955.72;;;13.03;100.00
66627;BME280;53498;50.422;14.912;2022-10-17T03:07:38;99962.69;;;13.03;100.00
66627;BME280;53498;50.422;14.912;2022-10-17T03:10:04;99954.91;;;13.07;100.00
66627;BME280;53498;50.422;14.912;2022-10-17T03:12:29;99959.25;;;13.07;100.00
66627;BME280;53498;50.422;14.912;2022-10-17T03:14:55;99962.72;;;13.04;100.00
66627;BME280;53498;50.422;14.912;2022-10-17T03:17:21;99959.22;;;13.01;100.00
66627;BME280;53498;50.422;14.912;2022-10-17T03:19:46;99960.06;;;12.96;100.00
66627;BME280;53498;50.422;14.912;2022-10-17T03:22:12;99967.06;;;13.02;100.00
66627;BME280;53498;50.422;14.912;2022-10-17T03:24:38;99971.38;;;12.97;100.00
66627;BME280;53498;50.422;14.912;2022-10-17T03:27:03;99975.72;;;12.96;100.00
66627;BME280;53498;50.422;14.912;2022-10-17T03:29:29;99974.84;;;12.90;100.00
66627;BME280;53498;50.422;14.912;2022-10-17T03:31:54;99973.06;;;12.83;100.00
66627;BME280;53498;50.422;14.912;2022-10-17T03:34:20;99977.38;;;12.81;100.00
66627;BME280;53498;50.422;14.912;2022-10-17T03:36:46;99974.75;;;12.78;100.00
66627;BME280;53498;50.422;14.912;2022-10-17T03:39:11;99974.75;;;12.78;100.00
66627;BME280;53498;50.422;14.912;2022-10-17T03:41:37;99972.13;;;12.74;100.00
66627;BME280;53498;50.422;14.912;2022-10-17T03:44:03;99979.97;;;12.74;100.00
66627;BME280;53498;50.422;14.912;2022-10-17T03:46:28;99971.25;;;12.69;100.00
66627;BME280;53498;50.422;14.912;2022-10-17T03:48:54;99972.13;;;12.73;100.00
66627;BME280;53498;50.422;14.912;2022-10-17T03:51:19;99978.19;;;12.72;100.00
66627;BME280;53498;50.422;14.912;2022-10-17T03:53:45;99979.97;;;12.78;100.00
66627;BME280;53498;50.422;14.912;2022-10-17T03:56:20;99979.16;;;12.85;100.00
66627;BME280;53498;50.422;14.912;2022-10-17T03:58:46;99978.28;;;12.83;100.00
66627;BME280;53498;50.422;14.912;2022-10-17T04:01:20;99976.53;;;12.82;100.00
66627;BME280;53498;50.422;14.912;2022-10-17T04:03:50;99973.94;;;12.86;100.00
66627;BME280;53498;50.422;14.912;2022-10-17T04:06:16;99978.31;;;12.89;100.00
66627;BME280;53498;50.422;14.912;2022-10-17T04:08:42;99981.78;;;12.91;100.00
66627;BME280;53498;50.422;14.912;2022-10-17T04:11:10;99991.38;;;12.89;100.00
66627;BME280;53498;50.422;14.912;2022-10-17T04:13:37;99987.91;;;12.91;100.00
66627;BME280;53498;50.422;14.912;2022-10-17T04:16:06;99991.38;;;12.93;100.00
66627;BME280;53498;50.422;14.912;2022-10-17T04:18:35;99988.75;;;12.90;100.00
66627;BME280;53498;50.422;14.912;2022-10-17T04:21:01;99991.34;;;12.87;100.00
66627;BME280;53498;50.422;14.912;2022-10-17T04:23:27;99992.22;;;12.86;100.00
66627;BME280;53498;50.422;14.912;2022-10-17T04:25:56;99997.44;;;12.82;100.00
66627;BME280;53498;50.422;14.912;2022-10-17T04:28:23;100001.75;;;12.77;100.00
66627;BME280;53498;50.422;14.912;2022-10-17T04:30:56;99995.63;;;12.74;100.00
66627;BME280;53498;50.422;14.912;2022-10-17T04:33:22;99993.81;;;12.66;100.00
66627;BME280;53498;50.422;14.912;2022-10-17T04:36:04;100003.38;;;12.62;100.00
66627;BME280;53498;50.422;14.912;2022-10-17T04:38:30;100005.97;;;12.58;100.00
66627;BME280;53498;50.422;14.912;2022-10-17T04:40:57;100002.47;;;12.54;100.00
66627;BME280;53498;50.422;14.912;2022-10-17T04:43:23;100009.38;;;12.44;100.00
66627;BME280;53498;50.422;14.912;2022-10-17T04:45:48;100016.22;;;12.32;100.00
66627;BME280;53498;50.422;14.912;2022-10-17T04:48:17;100020.56;;;12.34;100.00
66627;BME280;53498;50.422;14.912;2022-10-17T04:50:52;100017.25;;;12.52;100.00
66627;BME280;53498;50.422;14.912;2022-10-17T04:53:18;100012.97;;;12.63;100.00
66627;BME280;53498;50.422;14.912;2022-10-17T04:55:43;100011.25;;;12.67;100.00
66627;BME280;53498;50.422;14.912;2022-10-17T04:58:09;100015.63;;;12.71;100.00
66627;BME280;53498;50.422;14.912;2022-10-17T05:00:34;100015.63;;;12.71;100.00
66627;BME280;53498;50.422;14.912;2022-10-17T05:03:00;100019.13;;;12.74;100.00
66627;BME280;53498;50.422;14.912;2022-10-17T05:05:26;100012.13;;;12.69;100.00
66627;BME280;53498;50.422;14.912;2022-10-17T05:07:51;100013.88;;;12.68;100.00
66627;BME280;53498;50.422;14.912;2022-10-17T05:10:17;100019.97;;;12.67;100.00
66627;BME280;53498;50.422;14.912;2022-10-17T05:12:42;100012.09;;;12.66;100.00
66627;BME280;53498;50.422;14.912;2022-10-17T05:15:08;100022.53;;;12.66;100.00
66627;BME280;53498;50.422;14.912;2022-10-17T05:17:34;100020.75;;;12.59;100.00
66627;BME280;53498;50.422;14.912;2022-10-17T05:19:59;100023.38;;;12.57;100.00
66627;BME280;53498;50.422;14.912;2022-10-17T05:22:25;100023.34;;;12.56;100.00
66627;BME280;53498;50.422;14.912;2022-10-17T05:24:50;100033.81;;;12.57;100.00
66627;BME280;53498;50.422;14.912;2022-10-17T05:27:16;100032.06;;;12.59;100.00
66627;BME280;53498;50.422;14.912;2022-10-17T05:29:41;100038.16;;;12.54;100.00
66627;BME280;53498;50.422;14.912;2022-10-17T05:32:07;100039.84;;;12.48;100.00
66627;BME280;53498;50.422;14.912;2022-10-17T05:34:32;100041.63;;;12.54;100.00
66627;BME280;53498;50.422;14.912;2022-10-17T05:36:58;100046.81;;;12.53;100.00
66627;BME280;53498;50.422;14.912;2022-10-17T05:39:24;100059.88;;;12.56;100.00
66627;BME280;53498;50.422;14.912;2022-10-17T05:41:49;100061.59;;;12.52;100.00
66627;BME280;53498;50.422;14.912;2022-10-17T05:44:16;100063.41;;;12.58;100.00
66627;BME280;53498;50.422;14.912;2022-10-17T05:46:42;100066.84;;;12.54;100.00
66627;BME280;53498;50.422;14.912;2022-10-17T05:49:09;100070.34;;;12.57;100.00
66627;BME280;53498;50.422;14.912;2022-10-17T05:51:34;100078.16;;;12.54;100.00
66627;BME280;53498;50.422;14.912;2022-10-17T05:54:00;100080.81;;;12.57;100.00
66627;BME280;53498;50.422;14.912;2022-10-17T05:56:26;100081.63;;;12.55;100.00
66627;BME280;53498;50.422;14.912;2022-10-17T05:58:51;100087.78;;;12.61;100.00
66627;BME280;53498;50.422;14.912;2022-10-17T06:01:17;100082.53;;;12.58;100.00
66627;BME280;53498;50.422;14.912;2022-10-17T06:03:43;100084.25;;;12.56;100.00
66627;BME280;53498;50.422;14.912;2022-10-17T06:06:11;100091.19;;;12.51;100.00
66627;BME280;53498;50.422;14.912;2022-10-17T06:08:37;100092.97;;;12.57;100.00
66627;BME280;53498;50.422;14.912;2022-10-17T06:11:03;100100.91;;;12.72;100.00
66627;BME280;53498;50.422;14.912;2022-10-17T06:13:29;100100.94;;;12.75;100.00
66627;BME280;53498;50.422;14.912;2022-10-17T06:15:55;100098.41;;;12.87;100.00
66627;BME280;53498;50.422;14.912;2022-10-17T06:18:21;100100.22;;;12.94;100.00
66627;BME280;53498;50.422;14.912;2022-10-17T06:20:47;100102.00;;;13.03;100.00
66627;BME280;53498;50.422;14.912;2022-10-17T06:23:13;100105.47;;;12.99;100.00
66627;BME280;53498;50.422;14.912;2022-10-17T06:25:39;100102.88;;;12.98;100.00
66627;BME280;53498;50.422;14.912;2022-10-17T06:28:04;100104.63;;;13.05;100.00
66627;BME280;53498;50.422;14.912;2022-10-17T06:30:39;100101.25;;;13.16;100.00
66627;BME280;53498;50.422;14.912;2022-10-17T06:33:04;100102.94;;;13.11;100.00
66627;BME280;53498;50.422;14.912;2022-10-17T06:35:30;100102.94;;;13.13;100.00
66627;BME280;53498;50.422;14.912;2022-10-17T06:37:56;100095.09;;;13.11;100.00
66627;BME280;53498;50.422;14.912;2022-10-17T06:40:21;100094.38;;;13.31;100.00
66627;BME280;53498;50.422;14.912;2022-10-17T06:42:47;100096.13;;;13.29;100.00
66627;BME280;53498;50.422;14.912;2022-10-17T06:45:13;100101.28;;;13.24;100.00
66627;BME280;53498;50.422;14.912;2022-10-17T06:47:39;100108.34;;;13.40;100.00
66627;BME280;53498;50.422;14.912;2022-10-17T06:50:05;100104.00;;;13.39;100.00
66627;BME280;53498;50.422;14.912;2022-10-17T06:52:30;100111.00;;;13.42;100.00
66627;BME280;53498;50.422;14.912;2022-10-17T06:54:56;100117.09;;;13.46;100.00
66627;BME280;53498;50.422;14.912;2022-10-17T06:57:21;100121.38;;;13.34;100.00
66627;BME280;53498;50.422;14.912;2022-10-17T06:59:47;100129.31;;;13.47;100.00
66627;BME280;53498;50.422;14.912;2022-10-17T07:02:16;100141.56;;;13.58;100.00
66627;BME280;53498;50.422;14.912;2022-10-17T07:04:41;100136.34;;;13.60;100.00
66627;BME280;53498;50.422;14.912;2022-10-17T07:07:07;100137.19;;;13.51;100.00
66627;BME280;53498;50.422;14.912;2022-10-17T07:09:33;100143.38;;;13.73;100.00
66627;BME280;53498;50.422;14.912;2022-10-17T07:11:58;100153.88;;;13.79;100.00
66627;BME280;53498;50.422;14.912;2022-10-17T07:14:25;100155.63;;;13.79;100.00
66627;BME280;53498;50.422;14.912;2022-10-17T07:16:57;100161.69;;;13.75;100.00
66627;BME280;53498;50.422;14.912;2022-10-17T07:19:24;100166.97;;;13.90;100.00
66627;BME280;53498;50.422;14.912;2022-10-17T07:21:49;100168.72;;;13.94;100.00
66627;BME280;53498;50.422;14.912;2022-10-17T07:24:15;100163.50;;;13.86;100.00
66627;BME280;53498;50.422;14.912;2022-10-17T07:26:41;100169.56;;;13.84;100.00
66627;BME280;53498;50.422;14.912;2022-10-17T07:29:06;100169.66;;;13.98;100.00
66627;BME280;53498;50.422;14.912;2022-10-17T07:31:33;100166.16;;;14.02;100.00
66627;BME280;53498;50.422;14.912;2022-10-17T07:33:59;100174.00;;;13.99;100.00
66627;BME280;53498;50.422;14.912;2022-10-17T07:36:24;100167.03;;;14.02;100.00
66627;BME280;53498;50.422;14.912;2022-10-17T07:38:50;100169.66;;;14.10;100.00
66627;BME280;53498;50.422;14.912;2022-10-17T07:41:16;100174.97;;;14.24;100.00
66627;BME280;53498;50.422;14.912;2022-10-17T07:43:41;100168.84;;;14.31;100.00
66627;BME280;53498;50.422;14.912;2022-10-17T07:46:10;100168.84;;;14.31;100.00
66627;BME280;53498;50.422;14.912;2022-10-17T07:48:37;100161.94;;;14.45;100.00
66627;BME280;53498;50.422;14.912;2022-10-17T07:51:05;100170.63;;;14.33;100.00
66627;BME280;53498;50.422;14.912;2022-10-17T07:53:34;100166.25;;;14.31;100.00
66627;BME280;53498;50.422;14.912;2022-10-17T07:56:06;100170.63;;;14.44;100.00
66627;BME280;53498;50.422;14.912;2022-10-17T07:58:36;100168.00;;;14.33;100.00
66627;BME280;53498;50.422;14.912;2022-10-17T08:01:09;100165.38;;;14.35;100.00
66627;BME280;53498;50.422;14.912;2022-10-17T08:03:40;100166.28;;;14.49;100.00
66627;BME280;53498;50.422;14.912;2022-10-17T08:06:07;100167.22;;;14.51;100.00
66627;BME280;53498;50.422;14.912;2022-10-17T08:08:33;100165.47;;;14.78;100.00
66627;BME280;53498;50.422;14.912;2022-10-17T08:11:08;100161.97;;;14.79;98.49
66627;BME280;53498;50.422;14.912;2022-10-17T08:13:34;100156.75;;;14.74;99.31
66627;BME280;53498;50.422;14.912;2022-10-17T08:16:01;100160.25;;;14.90;99.81
66627;BME280;53498;50.422;14.912;2022-10-17T08:18:27;100169.84;;;14.77;98.56
66627;BME280;53498;50.422;14.912;2022-10-17T08:20:53;100160.25;;;14.84;98.98
66627;BME280;53498;50.422;14.912;2022-10-17T08:23:19;100156.75;;;15.08;98.80
66627;BME280;53498;50.422;14.912;2022-10-17T08:25:45;100161.09;;;15.24;97.91
66627;BME280;53498;50.422;14.912;2022-10-17T08:28:10;100156.72;;;15.19;96.80
66627;BME280;53498;50.422;14.912;2022-10-17T08:30:36;100156.72;;;15.07;97.83
66627;BME280;53498;50.422;14.912;2022-10-17T08:33:02;100164.59;;;15.23;96.94
66627;BME280;53498;50.422;14.912;2022-10-17T08:35:27;100162.81;;;15.33;96.87
66627;BME280;53498;50.422;14.912;2022-10-17T08:37:53;100159.31;;;15.28;97.20
66627;BME280;53498;50.422;14.912;2022-10-17T08:40:30;100159.34;;;15.25;98.66
66627;BME280;53498;50.422;14.912;2022-10-17T08:43:18;100151.44;;;15.43;97.28
66627;BME280;53498;50.422;14.912;2022-10-17T08:45:57;100148.75;;;15.63;96.04
66627;BME280;53498;50.422;14.912;2022-10-17T08:48:26;100143.50;;;15.63;95.63
66627;BME280;53498;50.422;14.912;2022-10-17T08:50:59;100149.63;;;15.78;95.23
66627;BME280;53498;50.422;14.912;2022-10-17T08:53:34;100154.81;;;15.85;95.32
66627;BME280;53498;50.422;14.912;2022-10-17T08:56:18;100154.81;;;15.88;94.39
66627;BME280;53498;50.422;14.912;2022-10-17T08:58:45;100155.63;;;16.01;93.85
66627;BME280;53498;50.422;14.912;2022-10-17T09:06:40;100145.25;;;15.80;94.00
66627;BME280;53498;50.422;14.912;2022-10-17T09:09:31;100140.72;;;16.14;94.10
66627;BME280;53498;50.422;14.912;2022-10-17T09:14:43;100151.06;;;16.32;93.48
66627;BME280;53498;50.422;14.912;2022-10-17T09:17:33;100148.41;;;16.41;92.79
66627;BME280;53498;50.422;14.912;2022-10-17T09:22:32;100150.91;;;16.60;92.64
66627;BME280;53498;50.422;14.912;2022-10-17T09:25:05;100148.22;;;16.71;91.02
66627;BME280;53498;50.422;14.912;2022-10-17T09:27:47;100150.00;;;16.62;91.29
66627;BME280;53498;50.422;14.912;2022-10-17T09:30:34;100141.16;;;16.80;91.64
66627;BME280;53498;50.422;14.912;2022-10-17T09:33:09;100155.13;;;16.82;90.58
66627;BME280;53498;50.422;14.912;2022-10-17T09:35:35;100152.59;;;16.67;91.34
66627;BME280;53498;50.422;14.912;2022-10-17T09:38:01;100149.03;;;16.79;91.47
66627;BME280;53498;50.422;14.912;2022-10-17T09:40:32;100152.47;;;16.85;91.07
66627;BME280;53498;50.422;14.912;2022-10-17T09:43:00;100160.31;;;16.93;90.30
66627;BME280;53498;50.422;14.912;2022-10-17T09:45:28;100157.97;;;16.55;91.15
66627;BME280;53498;50.422;14.912;2022-10-17T09:48:21;100151.72;;;16.71;90.79
66627;BME280;53498;50.422;14.912;2022-10-17T09:50:48;100161.41;;;16.64;90.46
66627;BME280;53498;50.422;14.912;2022-10-17T09:53:20;100152.50;;;16.82;91.00
66627;BME280;53498;50.422;14.912;2022-10-17T09:55:49;100155.06;;;16.93;89.57
66627;BME280;53498;50.422;14.912;2022-10-17T09:58:16;100156.94;;;16.80;90.39
66627;BME280;53498;50.422;14.912;2022-10-17T10:00:43;100153.44;;;16.72;90.14
66627;BME280;53498;50.422;14.912;2022-10-17T10:03:17;100159.53;;;16.83;90.43
66627;BME280;53498;50.422;14.912;2022-10-17T10:08:31;100161.19;;;16.94;89.94
66627;BME280;53498;50.422;14.912;2022-10-17T10:11:07;100159.38;;;17.02;90.55
66627;BME280;53498;50.422;14.912;2022-10-17T10:13:34;100156.88;;;16.85;90.58
66627;BME280;53498;50.422;14.912;2022-10-17T10:16:30;100153.97;;;17.16;89.76
66627;BME280;53498;50.422;14.912;2022-10-17T10:18:56;100138.00;;;17.35;88.86
66627;BME280;53498;50.422;14.912;2022-10-17T10:21:24;100137.06;;;17.43;87.81
66627;BME280;53498;50.422;14.912;2022-10-17T10:24:12;100127.50;;;17.34;88.33
66627;BME280;53498;50.422;14.912;2022-10-17T10:26:41;100131.84;;;17.40;88.19
66627;BME280;53498;50.422;14.912;2022-10-17T10:29:31;100126.59;;;17.37;88.10
66627;BME280;53498;50.422;14.912;2022-10-17T10:32:26;100133.69;;;17.28;88.80
66627;BME280;53498;50.422;14.912;2022-10-17T10:34:57;100118.72;;;17.37;89.49
66627;BME280;53498;50.422;14.912;2022-10-17T10:37:26;100125.69;;;17.41;87.90
66627;BME280;53498;50.422;14.912;2022-10-17T10:42:50;100133.81;;;17.18;88.77
66627;BME280;53498;50.422;14.912;2022-10-17T10:45:39;100117.94;;;17.27;87.88
66627;BME280;53498;50.422;14.912;2022-10-17T10:51:11;100116.56;;;17.69;86.33
66627;BME280;53498;50.422;14.912;2022-10-17T10:53:46;100115.56;;;17.83;86.17
66627;BME280;53498;50.422;14.912;2022-10-17T10:56:24;100115.59;;;17.81;84.50
66627;BME280;53498;50.422;14.912;2022-10-17T11:06:46;100102.31;;;17.89;85.23
66627;BME280;53498;50.422;14.912;2022-10-17T11:12:42;100098.66;;;18.02;84.35
66627;BME280;53498;50.422;14.912;2022-10-17T11:15:28;100099.38;;;18.12;82.94
66627;BME280;53498;50.422;14.912;2022-10-17T11:18:01;100100.13;;;18.21;83.34
66627;BME280;53498;50.422;14.912;2022-10-17T11:23:36;100087.59;;;18.36;82.40
66627;BME280;53498;50.422;14.912;2022-10-17T11:26:28;100094.44;;;18.49;81.68
66627;BME280;53498;50.422;14.912;2022-10-17T11:28:57;100093.81;;;18.32;82.08
66627;BME280;53498;50.422;14.912;2022-10-17T11:31:26;100092.00;;;18.35;82.81
66627;BME280;53498;50.422;14.912;2022-10-17T11:34:01;100081.31;;;18.46;81.73
66627;BME280;53498;50.422;14.912;2022-10-17T11:36:33;100088.16;;;18.56;81.66
66627;BME280;53498;50.422;14.912;2022-10-17T11:39:14;100078.41;;;18.61;80.55
66627;BME280;53498;50.422;14.912;2022-10-17T11:41:48;100084.41;;;18.69;80.20
66627;BME280;53498;50.422;14.912;2022-10-17T11:44:29;100068.00;;;18.55;82.09
66627;BME280;53498;50.422;14.912;2022-10-17T11:47:13;100080.84;;;18.73;81.04
66627;BME280;53498;50.422;14.912;2022-10-17T11:50:36;100080.91;;;18.69;79.91
66627;BME280;53498;50.422;14.912;2022-10-17T11:53:23;100072.03;;;18.76;79.31
66627;BME280;53498;50.422;14.912;2022-10-17T11:55:51;100080.91;;;18.69;79.92
66627;BME280;53498;50.422;14.912;2022-10-17T11:58:56;100085.56;;;18.53;80.97
66627;BME280;53498;50.422;14.912;2022-10-17T12:01:40;100087.19;;;18.62;80.23
66627;BME280;53498;50.422;14.912;2022-10-17T12:07:52;100074.84;;;18.65;80.16
66627;BME280;53498;50.422;14.912;2022-10-17T12:10:36;100072.91;;;18.77;80.52
66627;BME280;53498;50.422;14.912;2022-10-17T12:13:46;100065.50;;;18.97;80.92
66627;BME280;53498;50.422;14.912;2022-10-17T12:18:44;100056.09;;;18.84;80.67
66627;BME280;53498;50.422;14.912;2022-10-17T12:21:10;100056.81;;;18.92;81.58
66627;BME280;53498;50.422;14.912;2022-10-17T12:23:36;100054.34;;;18.83;81.12
66627;BME280;53498;50.422;14.912;2022-10-17T12:26:05;100050.06;;;18.77;81.28
66627;BME280;53498;50.422;14.912;2022-10-17T12:28:47;100054.28;;;18.86;81.01
66627;BME280;53498;50.422;14.912;2022-10-17T12:49:48;100054.63;;;19.14;77.50
66627;BME280;53498;50.422;14.912;2022-10-17T12:57:40;100038.69;;;19.20;76.70
66627;BME280;53498;50.422;14.912;2022-10-17T13:00:16;100042.06;;;19.27;76.74
66627;BME280;53498;50.422;14.912;2022-10-17T13:02:43;100028.00;;;19.28;76.29
66627;BME280;53498;50.422;14.912;2022-10-17T13:05:30;100029.75;;;19.27;76.47
66627;BME280;53498;50.422;14.912;2022-10-17T13:08:00;100034.03;;;19.34;75.70
66627;BME280;53498;50.422;14.912;2022-10-17T13:10:29;100027.94;;;19.31;75.75
66627;BME280;53498;50.422;14.912;2022-10-17T13:13:04;100026.13;;;19.33;76.08
66627;BME280;53498;50.422;14.912;2022-10-17T13:15:30;100025.25;;;19.32;76.41
66627;BME280;53498;50.422;14.912;2022-10-17T13:17:58;100029.00;;;19.22;76.46
66627;BME280;53498;50.422;14.912;2022-10-17T13:20:29;100023.72;;;19.22;76.89
66627;BME280;53498;50.422;14.912;2022-10-17T13:22:56;100025.38;;;19.28;76.72
66627;BME280;53498;50.422;14.912;2022-10-17T13:25:26;100027.88;;;19.34;76.45
66627;BME280;53498;50.422;14.912;2022-10-17T13:28:04;100023.22;;;19.47;75.28
66627;BME280;53498;50.422;14.912;2022-10-17T13:30:35;100016.22;;;19.44;75.09
66627;BME280;53498;50.422;14.912;2022-10-17T13:33:01;100006.00;;;19.29;76.32
66627;BME280;53498;50.422;14.912;2022-10-17T13:35:30;100006.59;;;19.41;75.25
66627;BME280;53498;50.422;14.912;2022-10-17T13:37:59;100016.91;;;19.52;75.62
66627;BME280;53498;50.422;14.912;2022-10-17T13:40:27;100016.28;;;19.41;76.49
66627;BME280;53498;50.422;14.912;2022-10-17T13:42:55;100024.09;;;19.47;74.53
66627;BME280;53498;50.422;14.912;2022-10-17T13:45:33;100015.00;;;19.60;74.61
66627;BME280;53498;50.422;14.912;2022-10-17T13:48:02;100011.44;;;19.61;74.61
66627;BME280;53498;50.422;14.912;2022-10-17T13:56:02;99997.19;;;19.72;74.12
66627;BME280;53498;50.422;14.912;2022-10-17T13:58:39;99999.78;;;19.73;73.92
66627;BME280;53498;50.422;14.912;2022-10-17T14:01:08;100002.53;;;19.69;74.44
66627;BME280;53498;50.422;14.912;2022-10-17T14:03:34;100000.78;;;19.68;73.61
66627;BME280;53498;50.422;14.912;2022-10-17T14:06:11;99995.38;;;19.74;73.64
66627;BME280;53498;50.422;14.912;2022-10-17T14:08:45;99992.06;;;19.66;75.11
66627;BME280;53498;50.422;14.912;2022-10-17T14:11:23;99989.59;;;19.55;75.31
66627;BME280;53498;50.422;14.912;2022-10-17T14:13:52;99991.31;;;19.57;75.30
66627;BME280;53498;50.422;14.912;2022-10-17T14:16:18;99987.56;;;19.69;74.86
66627;BME280;53498;50.422;14.912;2022-10-17T14:18:47;99986.69;;;19.69;74.77
66627;BME280;53498;50.422;14.912;2022-10-17T14:21:24;99993.69;;;19.71;75.19
66627;BME280;53498;50.422;14.912;2022-10-17T14:24:29;99992.78;;;19.72;74.71